sensor_id;sensor_type;location;lat;lon;timestamp;P1;durP1;ratioP1;P2;durP2;ratioP2
2388;SDS011;1205;47.984;7.668;2023-03-20T00:00:49;2.00;;;1.90;;
2388;SDS011;1205;47.984;7.668;2023-03-20T00:03:15;1.83;;;1.73;;
2388;SDS011;1205;47.984;7.668;2023-03-20T00:05:41;3.23;;;1.60;;
2388;SDS011;1205;47.984;7.668;2023-03-20T00:08:07;1.23;;;1.23;;
2388;SDS011;1205;47.984;7.668;2023-03-20T00:13:04;1.33;;;1.07;;
2388;SDS011;1205;47.984;7.668;2023-03-20T00:15:34;0.80;;;0.80;;
2388;SDS011;1205;47.984;7.668;2023-03-20T00:18:02;0.87;;;0.87;;
2388;SDS011;1205;47.984;7.668;2023-03-20T00:20:35;1.30;;;1.20;;
2388;SDS011;1205;47.984;7.668;2023-03-20T00:23:00;0.80;;;0.80;;
2388;SDS011;1205;47.984;7.668;2023-03-20T00:25:28;0.70;;;0.70;;
2388;SDS011;1205;47.984;7.668;2023-03-20T00:27:53;0.83;;;0.83;;
2388;SDS011;1205;47.984;7.668;2023-03-20T00:30:24;1.33;;;0.90;;
2388;SDS011;1205;47.984;7.668;2023-03-20T00:32:53;1.50;;;0.70;;
2388;SDS011;1205;47.984;7.668;2023-03-20T00:37:47;0.70;;;0.70;;
2388;SDS011;1205;47.984;7.668;2023-03-20T00:40:13;1.43;;;1.00;;
2388;SDS011;1205;47.984;7.668;2023-03-20T00:42:39;1.20;;;1.10;;
2388;SDS011;1205;47.984;7.668;2023-03-20T00:45:05;1.20;;;1.20;;
2388;SDS011;1205;47.984;7.668;2023-03-20T00:47:33;0.90;;;0.90;;
2388;SDS011;1205;47.984;7.668;2023-03-20T00:50:05;0.90;;;0.90;;
2388;SDS011;1205;47.984;7.668;2023-03-20T00:52:39;0.87;;;0.87;;
2388;SDS011;1205;47.984;7.668;2023-03-20T00:55:04;0.83;;;0.83;;
2388;SDS011;1205;47.984;7.668;2023-03-20T00:57:33;2.70;;;1.23;;
2388;SDS011;1205;47.984;7.668;2023-03-20T01:00:19;1.33;;;0.70;;
2388;SDS011;1205;47.984;7.668;2023-03-20T01:02:51;0.80;;;0.80;;
2388;SDS011;1205;47.984;7.668;2023-03-20T01:05:19;1.10;;;1.00;;
2388;SDS011;1205;47.984;7.668;2023-03-20T01:07:44;1.00;;;1.00;;
2388;SDS011;1205;47.984;7.668;2023-03-20T01:10:10;1.10;;;1.00;;
2388;SDS011;1205;47.984;7.668;2023-03-20T01:12:38;1.03;;;1.03;;
2388;SDS011;1205;47.984;7.668;2023-03-20T01:15:08;1.90;;;1.20;;
2388;SDS011;1205;47.984;7.668;2023-03-20T01:17:41;1.30;;;1.20;;
2388;SDS011;1205;47.984;7.668;2023-03-20T01:20:14;1.50;;;1.50;;
2388;SDS011;1205;47.984;7.668;2023-03-20T01:22:42;1.27;;;0.97;;
2388;SDS011;1205;47.984;7.668;2023-03-20T01:25:08;1.20;;;1.20;;
2388;SDS011;1205;47.984;7.668;2023-03-20T01:27:35;0.90;;;0.90;;
2388;SDS011;1205;47.984;7.668;2023-03-20T01:30:00;1.67;;;1.57;;
2388;SDS011;1205;47.984;7.668;2023-03-20T01:32:28;1.33;;;1.20;;
2388;SDS011;1205;47.984;7.668;2023-03-20T01:34:53;1.50;;;1.40;;
2388;SDS011;1205;47.984;7.668;2023-03-20T01:37:23;1.23;;;1.23;;
2388;SDS011;1205;47.984;7.668;2023-03-20T01:39:50;1.10;;;1.10;;
2388;SDS011;1205;47.984;7.668;2023-03-20T01:42:16;2.30;;;1.10;;
2388;SDS011;1205;47.984;7.668;2023-03-20T01:44:42;1.30;;;1.30;;
2388;SDS011;1205;47.984;7.668;2023-03-20T01:47:14;3.03;;;1.30;;
2388;SDS011;1205;47.984;7.668;2023-03-20T01:52:42;2.60;;;1.70;;
2388;SDS011;1205;47.984;7.668;2023-03-20T01:55:09;1.60;;;1.50;;
2388;SDS011;1205;47.984;7.668;2023-03-20T01:57:35;1.70;;;1.60;;
2388;SDS011;1205;47.984;7.668;2023-03-20T02:00:03;1.97;;;1.87;;
2388;SDS011;1205;47.984;7.668;2023-03-20T02:02:34;2.07;;;1.97;;
2388;SDS011;1205;47.984;7.668;2023-03-20T02:05:03;1.50;;;1.50;;
2388;SDS011;1205;47.984;7.668;2023-03-20T02:07:32;2.33;;;2.23;;
2388;SDS011;1205;47.984;7.668;2023-03-20T02:10:00;2.10;;;2.00;;
2388;SDS011;1205;47.984;7.668;2023-03-20T02:12:28;2.40;;;2.20;;
2388;SDS011;1205;47.984;7.668;2023-03-20T02:14:53;1.97;;;1.87;;
2388;SDS011;1205;47.984;7.668;2023-03-20T02:17:20;2.10;;;2.00;;
2388;SDS011;1205;47.984;7.668;2023-03-20T02:28:14;3.50;;;3.20;;
2388;SDS011;1205;47.984;7.668;2023-03-20T02:30:54;2.57;;;2.33;;
2388;SDS011;1205;47.984;7.668;2023-03-20T02:39:27;2.83;;;2.63;;
2388;SDS011;1205;47.984;7.668;2023-03-20T02:55:52;4.10;;;3.43;;
2388;SDS011;1205;47.984;7.668;2023-03-20T02:58:27;4.40;;;3.27;;
2388;SDS011;1205;47.984;7.668;2023-03-20T03:01:01;3.40;;;3.10;;
2388;SDS011;1205;47.984;7.668;2023-03-20T03:03:35;3.40;;;3.10;;
2388;SDS011;1205;47.984;7.668;2023-03-20T03:06:16;3.33;;;3.10;;
2388;SDS011;1205;47.984;7.668;2023-03-20T03:08:49;3.23;;;3.03;;
2388;SDS011;1205;47.984;7.668;2023-03-20T03:11:19;2.90;;;2.67;;
2388;SDS011;1205;47.984;7.668;2023-03-20T03:13:49;3.77;;;3.03;;
2388;SDS011;1205;47.984;7.668;2023-03-20T03:16:23;3.53;;;3.23;;
2388;SDS011;1205;47.984;7.668;2023-03-20T03:19:12;4.33;;;3.43;;
2388;SDS011;1205;47.984;7.668;2023-03-20T03:21:42;4.27;;;3.20;;
2388;SDS011;1205;47.984;7.668;2023-03-20T03:27:00;3.97;;;3.67;;
2388;SDS011;1205;47.984;7.668;2023-03-20T03:29:32;3.77;;;3.37;;
2388;SDS011;1205;47.984;7.668;2023-03-20T03:32:00;4.40;;;4.10;;
2388;SDS011;1205;47.984;7.668;2023-03-20T03:34:29;4.07;;;3.77;;
2388;SDS011;1205;47.984;7.668;2023-03-20T03:36:59;3.60;;;3.30;;
2388;SDS011;1205;47.984;7.668;2023-03-20T03:45:14;4.27;;;3.70;;
2388;SDS011;1205;47.984;7.668;2023-03-20T03:47:39;3.93;;;3.57;;
2388;SDS011;1205;47.984;7.668;2023-03-20T03:50:14;4.67;;;3.43;;
2388;SDS011;1205;47.984;7.668;2023-03-20T03:52:44;3.97;;;3.67;;
2388;SDS011;1205;47.984;7.668;2023-03-20T03:55:14;4.93;;;4.07;;
2388;SDS011;1205;47.984;7.668;2023-03-20T03:57:51;4.43;;;3.47;;
2388;SDS011;1205;47.984;7.668;2023-03-20T04:00:22;4.13;;;3.83;;
2388;SDS011;1205;47.984;7.668;2023-03-20T04:02:52;6.67;;;3.80;;
2388;SDS011;1205;47.984;7.668;2023-03-20T04:05:20;5.40;;;4.03;;
2388;SDS011;1205;47.984;7.668;2023-03-20T04:07:51;4.20;;;3.60;;
2388;SDS011;1205;47.984;7.668;2023-03-20T04:10:19;4.80;;;4.40;;
2388;SDS011;1205;47.984;7.668;2023-03-20T04:12:45;4.20;;;3.97;;
2388;SDS011;1205;47.984;7.668;2023-03-20T04:15:11;4.03;;;3.60;;
2388;SDS011;1205;47.984;7.668;2023-03-20T04:17:37;4.10;;;3.83;;
2388;SDS011;1205;47.984;7.668;2023-03-20T04:20:03;4.23;;;3.90;;
2388;SDS011;1205;47.984;7.668;2023-03-20T04:22:30;5.00;;;4.03;;
2388;SDS011;1205;47.984;7.668;2023-03-20T04:24:58;5.17;;;4.67;;
2388;SDS011;1205;47.984;7.668;2023-03-20T04:27:25;5.03;;;4.13;;
2388;SDS011;1205;47.984;7.668;2023-03-20T04:29:51;6.23;;;4.43;;
2388;SDS011;1205;47.984;7.668;2023-03-20T04:32:16;4.60;;;4.20;;
2388;SDS011;1205;47.984;7.668;2023-03-20T04:34:42;6.03;;;4.47;;
2388;SDS011;1205;47.984;7.668;2023-03-20T04:37:07;4.60;;;4.20;;
2388;SDS011;1205;47.984;7.668;2023-03-20T04:39:33;4.27;;;3.87;;
2388;SDS011;1205;47.984;7.668;2023-03-20T04:42:00;7.30;;;4.40;;
2388;SDS011;1205;47.984;7.668;2023-03-20T04:44:26;5.03;;;4.50;;
2388;SDS011;1205;47.984;7.668;2023-03-20T04:46:52;4.17;;;3.87;;
2388;SDS011;1205;47.984;7.668;2023-03-20T04:49:18;6.27;;;4.87;;
2388;SDS011;1205;47.984;7.668;2023-03-20T04:51:43;4.40;;;4.00;;
2388;SDS011;1205;47.984;7.668;2023-03-20T04:54:09;4.70;;;4.17;;
2388;SDS011;1205;47.984;7.668;2023-03-20T04:56:34;4.63;;;4.23;;
2388;SDS011;1205;47.984;7.668;2023-03-20T04:59:00;6.23;;;4.50;;
2388;SDS011;1205;47.984;7.668;2023-03-20T05:01:25;6.90;;;4.63;;
2388;SDS011;1205;47.984;7.668;2023-03-20T05:03:51;5.70;;;5.20;;
2388;SDS011;1205;47.984;7.668;2023-03-20T05:06:17;4.93;;;4.53;;
2388;SDS011;1205;47.984;7.668;2023-03-20T05:08:42;4.20;;;3.90;;
2388;SDS011;1205;47.984;7.668;2023-03-20T05:11:08;4.60;;;4.17;;
2388;SDS011;1205;47.984;7.668;2023-03-20T05:13:34;4.57;;;4.23;;
2388;SDS011;1205;47.984;7.668;2023-03-20T05:15:59;5.20;;;4.70;;
2388;SDS011;1205;47.984;7.668;2023-03-20T05:18:25;5.10;;;4.70;;
2388;SDS011;1205;47.984;7.668;2023-03-20T05:20:51;4.57;;;4.10;;
2388;SDS011;1205;47.984;7.668;2023-03-20T05:23:16;4.20;;;3.60;;
2388;SDS011;1205;47.984;7.668;2023-03-20T05:25:42;3.53;;;3.23;;
2388;SDS011;1205;47.984;7.668;2023-03-20T05:28:08;5.27;;;4.77;;
2388;SDS011;1205;47.984;7.668;2023-03-20T05:30:34;6.60;;;4.47;;
2388;SDS011;1205;47.984;7.668;2023-03-20T05:32:59;5.77;;;4.67;;
2388;SDS011;1205;47.984;7.668;2023-03-20T05:35:25;9.37;;;4.90;;
2388;SDS011;1205;47.984;7.668;2023-03-20T05:37:50;7.33;;;5.97;;
2388;SDS011;1205;47.984;7.668;2023-03-20T05:40:16;6.73;;;5.40;;
2388;SDS011;1205;47.984;7.668;2023-03-20T05:42:43;6.03;;;5.30;;
2388;SDS011;1205;47.984;7.668;2023-03-20T05:45:09;5.70;;;5.10;;
2388;SDS011;1205;47.984;7.668;2023-03-20T05:47:35;6.10;;;5.50;;
2388;SDS011;1205;47.984;7.668;2023-03-20T05:50:01;6.80;;;5.47;;
2388;SDS011;1205;47.984;7.668;2023-03-20T05:52:27;5.97;;;5.37;;
2388;SDS011;1205;47.984;7.668;2023-03-20T05:54:53;12.13;;;5.80;;
2388;SDS011;1205;47.984;7.668;2023-03-20T05:57:18;6.40;;;5.80;;
2388;SDS011;1205;47.984;7.668;2023-03-20T05:59:44;8.07;;;7.10;;
2388;SDS011;1205;47.984;7.668;2023-03-20T06:02:09;7.93;;;6.60;;
2388;SDS011;1205;47.984;7.668;2023-03-20T06:04:36;7.73;;;5.70;;
2388;SDS011;1205;47.984;7.668;2023-03-20T06:07:02;6.30;;;5.67;;
2388;SDS011;1205;47.984;7.668;2023-03-20T06:09:28;6.47;;;5.83;;
2388;SDS011;1205;47.984;7.668;2023-03-20T06:11:53;6.87;;;5.90;;
2388;SDS011;1205;47.984;7.668;2023-03-20T06:14:20;6.57;;;5.97;;
2388;SDS011;1205;47.984;7.668;2023-03-20T06:16:45;10.13;;;6.40;;
2388;SDS011;1205;47.984;7.668;2023-03-20T06:19:11;6.80;;;6.10;;
2388;SDS011;1205;47.984;7.668;2023-03-20T06:21:37;6.30;;;5.57;;
2388;SDS011;1205;47.984;7.668;2023-03-20T06:24:02;6.33;;;4.83;;
2388;SDS011;1205;47.984;7.668;2023-03-20T06:26:28;5.83;;;5.23;;
2388;SDS011;1205;47.984;7.668;2023-03-20T06:28:54;10.83;;;4.90;;
2388;SDS011;1205;47.984;7.668;2023-03-20T06:31:20;4.63;;;4.23;;
2388;SDS011;1205;47.984;7.668;2023-03-20T06:33:45;6.73;;;5.67;;
2388;SDS011;1205;47.984;7.668;2023-03-20T06:36:11;5.57;;;5.07;;
2388;SDS011;1205;47.984;7.668;2023-03-20T06:38:37;8.53;;;5.13;;
2388;SDS011;1205;47.984;7.668;2023-03-20T06:41:02;4.67;;;4.37;;
2388;SDS011;1205;47.984;7.668;2023-03-20T06:43:28;6.07;;;5.47;;
2388;SDS011;1205;47.984;7.668;2023-03-20T06:45:54;5.13;;;4.73;;
2388;SDS011;1205;47.984;7.668;2023-03-20T06:48:19;5.70;;;5.20;;
2388;SDS011;1205;47.984;7.668;2023-03-20T06:50:48;5.60;;;5.00;;
2388;SDS011;1205;47.984;7.668;2023-03-20T06:53:14;6.53;;;5.27;;
2388;SDS011;1205;47.984;7.668;2023-03-20T06:55:40;6.30;;;5.70;;
2388;SDS011;1205;47.984;7.668;2023-03-20T06:58:15;9.03;;;5.27;;
2388;SDS011;1205;47.984;7.668;2023-03-20T07:00:41;6.97;;;4.53;;
2388;SDS011;1205;47.984;7.668;2023-03-20T07:03:07;5.30;;;4.90;;
2388;SDS011;1205;47.984;7.668;2023-03-20T07:05:34;5.27;;;4.77;;
2388;SDS011;1205;47.984;7.668;2023-03-20T07:07:59;5.40;;;5.00;;
2388;SDS011;1205;47.984;7.668;2023-03-20T07:10:25;6.33;;;5.83;;
2388;SDS011;1205;47.984;7.668;2023-03-20T07:12:51;6.63;;;5.97;;
2388;SDS011;1205;47.984;7.668;2023-03-20T07:15:17;5.87;;;5.37;;
2388;SDS011;1205;47.984;7.668;2023-03-20T07:17:43;5.93;;;5.23;;
2388;SDS011;1205;47.984;7.668;2023-03-20T07:20:09;5.77;;;5.27;;
2388;SDS011;1205;47.984;7.668;2023-03-20T07:22:35;5.40;;;4.97;;
2388;SDS011;1205;47.984;7.668;2023-03-20T07:25:01;4.17;;;3.93;;
2388;SDS011;1205;47.984;7.668;2023-03-20T07:27:27;5.63;;;5.13;;
2388;SDS011;1205;47.984;7.668;2023-03-20T07:29:53;5.40;;;5.00;;
2388;SDS011;1205;47.984;7.668;2023-03-20T07:32:18;4.80;;;4.40;;
2388;SDS011;1205;47.984;7.668;2023-03-20T07:34:45;8.20;;;4.70;;
2388;SDS011;1205;47.984;7.668;2023-03-20T07:37:11;5.17;;;4.77;;
2388;SDS011;1205;47.984;7.668;2023-03-20T07:39:37;4.67;;;3.80;;
2388;SDS011;1205;47.984;7.668;2023-03-20T07:42:02;4.03;;;3.83;;
2388;SDS011;1205;47.984;7.668;2023-03-20T07:44:28;5.83;;;4.20;;
2388;SDS011;1205;47.984;7.668;2023-03-20T07:46:54;4.93;;;4.13;;
2388;SDS011;1205;47.984;7.668;2023-03-20T07:49:20;6.47;;;5.30;;
2388;SDS011;1205;47.984;7.668;2023-03-20T07:51:46;12.17;;;6.97;;
2388;SDS011;1205;47.984;7.668;2023-03-20T07:54:13;8.70;;;7.67;;
2388;SDS011;1205;47.984;7.668;2023-03-20T07:56:39;7.50;;;6.17;;
2388;SDS011;1205;47.984;7.668;2023-03-20T07:59:05;4.90;;;4.50;;
2388;SDS011;1205;47.984;7.668;2023-03-20T08:01:30;4.70;;;4.30;;
2388;SDS011;1205;47.984;7.668;2023-03-20T08:03:56;4.30;;;4.00;;
2388;SDS011;1205;47.984;7.668;2023-03-20T08:06:22;40.50;;;22.93;;
2388;SDS011;1205;47.984;7.668;2023-03-20T08:08:47;36.93;;;19.37;;
2388;SDS011;1205;47.984;7.668;2023-03-20T08:11:16;20.90;;;12.47;;
2388;SDS011;1205;47.984;7.668;2023-03-20T08:13:43;15.90;;;9.13;;
2388;SDS011;1205;47.984;7.668;2023-03-20T08:16:09;5.23;;;4.80;;
2388;SDS011;1205;47.984;7.668;2023-03-20T08:18:34;5.30;;;4.80;;
2388;SDS011;1205;47.984;7.668;2023-03-20T08:21:00;5.00;;;4.60;;
2388;SDS011;1205;47.984;7.668;2023-03-20T08:23:26;4.60;;;4.30;;
2388;SDS011;1205;47.984;7.668;2023-03-20T08:25:51;4.77;;;4.43;;
2388;SDS011;1205;47.984;7.668;2023-03-20T08:28:18;5.37;;;3.97;;
2388;SDS011;1205;47.984;7.668;2023-03-20T08:30:45;3.70;;;3.40;;
2388;SDS011;1205;47.984;7.668;2023-03-20T08:33:11;4.10;;;3.70;;
2388;SDS011;1205;47.984;7.668;2023-03-20T08:35:38;3.47;;;3.27;;
2388;SDS011;1205;47.984;7.668;2023-03-20T08:38:03;4.27;;;3.87;;
2388;SDS011;1205;47.984;7.668;2023-03-20T08:40:29;4.10;;;3.70;;
2388;SDS011;1205;47.984;7.668;2023-03-20T08:42:55;7.07;;;3.53;;
2388;SDS011;1205;47.984;7.668;2023-03-20T08:45:21;3.90;;;3.50;;
2388;SDS011;1205;47.984;7.668;2023-03-20T08:47:50;4.47;;;3.70;;
2388;SDS011;1205;47.984;7.668;2023-03-20T08:50:16;3.93;;;3.70;;
2388;SDS011;1205;47.984;7.668;2023-03-20T08:52:42;4.80;;;3.80;;
2388;SDS011;1205;47.984;7.668;2023-03-20T08:55:11;3.57;;;3.37;;
2388;SDS011;1205;47.984;7.668;2023-03-20T08:57:39;3.50;;;3.30;;
2388;SDS011;1205;47.984;7.668;2023-03-20T09:00:05;3.50;;;3.20;;
2388;SDS011;1205;47.984;7.668;2023-03-20T09:02:32;3.53;;;3.23;;
2388;SDS011;1205;47.984;7.668;2023-03-20T09:04:58;9.20;;;3.80;;
2388;SDS011;1205;47.984;7.668;2023-03-20T09:07:24;3.93;;;3.17;;
2388;SDS011;1205;47.984;7.668;2023-03-20T09:09:50;3.00;;;2.90;;
2388;SDS011;1205;47.984;7.668;2023-03-20T09:12:15;4.40;;;3.20;;
2388;SDS011;1205;47.984;7.668;2023-03-20T09:14:41;5.70;;;3.03;;
2388;SDS011;1205;47.984;7.668;2023-03-20T09:17:07;4.00;;;3.20;;
2388;SDS011;1205;47.984;7.668;2023-03-20T09:19:33;3.40;;;3.20;;
2388;SDS011;1205;47.984;7.668;2023-03-20T09:21:59;3.07;;;2.77;;
2388;SDS011;1205;47.984;7.668;2023-03-20T09:24:25;7.40;;;2.90;;
2388;SDS011;1205;47.984;7.668;2023-03-20T09:26:51;2.77;;;2.67;;
2388;SDS011;1205;47.984;7.668;2023-03-20T09:29:16;3.30;;;3.10;;
2388;SDS011;1205;47.984;7.668;2023-03-20T09:31:42;3.47;;;3.10;;
2388;SDS011;1205;47.984;7.668;2023-03-20T09:34:08;2.90;;;2.70;;
2388;SDS011;1205;47.984;7.668;2023-03-20T09:36:33;3.50;;;3.13;;
2388;SDS011;1205;47.984;7.668;2023-03-20T09:38:59;2.30;;;2.10;;
2388;SDS011;1205;47.984;7.668;2023-03-20T09:41:25;3.73;;;3.43;;
2388;SDS011;1205;47.984;7.668;2023-03-20T09:57:00;2.60;;;1.87;;
2388;SDS011;1205;47.984;7.668;2023-03-20T09:59:28;1.10;;;1.10;;
2388;SDS011;1205;47.984;7.668;2023-03-20T10:01:58;2.20;;;2.00;;
2388;SDS011;1205;47.984;7.668;2023-03-20T10:04:38;2.20;;;1.80;;
2388;SDS011;1205;47.984;7.668;2023-03-20T10:07:04;35.27;;;22.80;;
2388;SDS011;1205;47.984;7.668;2023-03-20T10:09:30;5.83;;;4.83;;
2388;SDS011;1205;47.984;7.668;2023-03-20T10:12:15;3.40;;;2.50;;
2388;SDS011;1205;47.984;7.668;2023-03-20T10:15:16;4.63;;;4.23;;
2388;SDS011;1205;47.984;7.668;2023-03-20T10:18:23;3.30;;;2.30;;
2388;SDS011;1205;47.984;7.668;2023-03-20T10:20:55;3.40;;;3.10;;
2388;SDS011;1205;47.984;7.668;2023-03-20T10:25:59;2.67;;;2.57;;
2388;SDS011;1205;47.984;7.668;2023-03-20T10:34:01;3.97;;;2.93;;
2388;SDS011;1205;47.984;7.668;2023-03-20T10:39:34;2.50;;;2.37;;
2388;SDS011;1205;47.984;7.668;2023-03-20T10:42:14;6.53;;;3.23;;
2388;SDS011;1205;47.984;7.668;2023-03-20T10:44:49;2.30;;;2.20;;
2388;SDS011;1205;47.984;7.668;2023-03-20T10:47:22;1.90;;;1.90;;
2388;SDS011;1205;47.984;7.668;2023-03-20T10:49:52;3.00;;;2.33;;
2388;SDS011;1205;47.984;7.668;2023-03-20T10:52:24;5.20;;;2.30;;
2388;SDS011;1205;47.984;7.668;2023-03-20T10:54:57;2.50;;;2.40;;
2388;SDS011;1205;47.984;7.668;2023-03-20T10:57:47;3.33;;;1.80;;
2388;SDS011;1205;47.984;7.668;2023-03-20T11:00:22;1.60;;;1.50;;
2388;SDS011;1205;47.984;7.668;2023-03-20T11:02:50;1.37;;;1.27;;
2388;SDS011;1205;47.984;7.668;2023-03-20T11:07:49;1.30;;;1.30;;
2388;SDS011;1205;47.984;7.668;2023-03-20T11:10:25;2.90;;;1.30;;
2388;SDS011;1205;47.984;7.668;2023-03-20T11:12:51;1.40;;;1.30;;
2388;SDS011;1205;47.984;7.668;2023-03-20T11:15:22;1.43;;;1.33;;
2388;SDS011;1205;47.984;7.668;2023-03-20T11:18:00;2.10;;;1.30;;
2388;SDS011;1205;47.984;7.668;2023-03-20T11:20:32;1.97;;;1.73;;
2388;SDS011;1205;47.984;7.668;2023-03-20T11:23:03;2.30;;;1.33;;
2388;SDS011;1205;47.984;7.668;2023-03-20T11:25:35;0.97;;;0.87;;
2388;SDS011;1205;47.984;7.668;2023-03-20T11:30:55;1.43;;;0.63;;
2388;SDS011;1205;47.984;7.668;2023-03-20T11:33:24;4.83;;;0.70;;
2388;SDS011;1205;47.984;7.668;2023-03-20T11:35:52;0.80;;;0.80;;
2388;SDS011;1205;47.984;7.668;2023-03-20T11:38:21;2.57;;;0.70;;
2388;SDS011;1205;47.984;7.668;2023-03-20T11:40:47;1.10;;;1.00;;
2388;SDS011;1205;47.984;7.668;2023-03-20T11:43:20;4.67;;;0.87;;
2388;SDS011;1205;47.984;7.668;2023-03-20T11:45:57;1.00;;;1.00;;
2388;SDS011;1205;47.984;7.668;2023-03-20T11:48:25;0.93;;;0.93;;
2388;SDS011;1205;47.984;7.668;2023-03-20T11:53:37;1.00;;;1.00;;
2388;SDS011;1205;47.984;7.668;2023-03-20T11:56:25;1.27;;;1.27;;
2388;SDS011;1205;47.984;7.668;2023-03-20T12:01:37;1.33;;;1.10;;
2388;SDS011;1205;47.984;7.668;2023-03-20T12:04:12;0.93;;;0.93;;
2388;SDS011;1205;47.984;7.668;2023-03-20T12:06:45;1.90;;;1.17;;
2388;SDS011;1205;47.984;7.668;2023-03-20T12:11:51;1.50;;;1.40;;
2388;SDS011;1205;47.984;7.668;2023-03-20T12:14:34;0.97;;;0.93;;
2388;SDS011;1205;47.984;7.668;2023-03-20T12:19:57;1.80;;;1.10;;
2388;SDS011;1205;47.984;7.668;2023-03-20T12:22:29;1.20;;;1.10;;
2388;SDS011;1205;47.984;7.668;2023-03-20T12:25:02;1.03;;;0.93;;
2388;SDS011;1205;47.984;7.668;2023-03-20T12:28:01;1.00;;;1.00;;
2388;SDS011;1205;47.984;7.668;2023-03-20T12:33:29;1.00;;;1.00;;
2388;SDS011;1205;47.984;7.668;2023-03-20T12:36:02;1.17;;;1.10;;
2388;SDS011;1205;47.984;7.668;2023-03-20T12:38:30;0.97;;;0.97;;
2388;SDS011;1205;47.984;7.668;2023-03-20T12:52:01;2.50;;;1.40;;
2388;SDS011;1205;47.984;7.668;2023-03-20T12:54:50;1.00;;;1.00;;
2388;SDS011;1205;47.984;7.668;2023-03-20T13:05:08;1.70;;;1.60;;
2388;SDS011;1205;47.984;7.668;2023-03-20T13:08:12;1.40;;;1.30;;
2388;SDS011;1205;47.984;7.668;2023-03-20T13:11:04;3.83;;;3.53;;
2388;SDS011;1205;47.984;7.668;2023-03-20T13:13:38;3.80;;;1.33;;
2388;SDS011;1205;47.984;7.668;2023-03-20T13:16:23;1.30;;;1.30;;
2388;SDS011;1205;47.984;7.668;2023-03-20T13:19:09;1.57;;;1.47;;
2388;SDS011;1205;47.984;7.668;2023-03-20T13:22:05;3.10;;;1.60;;
2388;SDS011;1205;47.984;7.668;2023-03-20T13:24:47;1.13;;;1.13;;
2388;SDS011;1205;47.984;7.668;2023-03-20T13:30:11;4.00;;;1.50;;
2388;SDS011;1205;47.984;7.668;2023-03-20T13:32:48;1.27;;;1.03;;
2388;SDS011;1205;47.984;7.668;2023-03-20T13:35:19;2.40;;;1.10;;
2388;SDS011;1205;47.984;7.668;2023-03-20T13:38:34;1.40;;;1.40;;
2388;SDS011;1205;47.984;7.668;2023-03-20T13:40:45;1.10;;;1.10;;
2388;SDS011;1205;47.984;7.668;2023-03-20T13:45:58;1.13;;;1.10;;
2388;SDS011;1205;47.984;7.668;2023-03-20T13:48:36;0.77;;;0.70;;
2388;SDS011;1205;47.984;7.668;2023-03-20T14:01:46;0.97;;;0.97;;
2388;SDS011;1205;47.984;7.668;2023-03-20T14:04:23;1.33;;;1.00;;
2388;SDS011;1205;47.984;7.668;2023-03-20T14:06:55;2.53;;;0.73;;
2388;SDS011;1205;47.984;7.668;2023-03-20T14:09:27;1.10;;;1.00;;
2388;SDS011;1205;47.984;7.668;2023-03-20T14:12:04;1.00;;;0.87;;
2388;SDS011;1205;47.984;7.668;2023-03-20T14:14:39;0.60;;;0.60;;
2388;SDS011;1205;47.984;7.668;2023-03-20T14:19:39;1.10;;;1.00;;
2388;SDS011;1205;47.984;7.668;2023-03-20T14:22:05;0.80;;;0.80;;
2388;SDS011;1205;47.984;7.668;2023-03-20T14:24:34;0.67;;;0.67;;
2388;SDS011;1205;47.984;7.668;2023-03-20T14:27:02;0.87;;;0.87;;
2388;SDS011;1205;47.984;7.668;2023-03-20T14:32:01;1.77;;;0.70;;
2388;SDS011;1205;47.984;7.668;2023-03-20T14:34:30;0.90;;;0.90;;
2388;SDS011;1205;47.984;7.668;2023-03-20T14:37:25;1.30;;;0.90;;
2388;SDS011;1205;47.984;7.668;2023-03-20T14:40:11;2.30;;;1.07;;
2388;SDS011;1205;47.984;7.668;2023-03-20T14:42:45;0.60;;;0.60;;
2388;SDS011;1205;47.984;7.668;2023-03-20T14:53:44;0.60;;;0.60;;
2388;SDS011;1205;47.984;7.668;2023-03-20T14:56:40;0.80;;;0.80;;
2388;SDS011;1205;47.984;7.668;2023-03-20T14:59:05;1.00;;;1.00;;
2388;SDS011;1205;47.984;7.668;2023-03-20T15:04:07;0.80;;;0.70;;
2388;SDS011;1205;47.984;7.668;2023-03-20T15:06:47;0.80;;;0.80;;
2388;SDS011;1205;47.984;7.668;2023-03-20T15:09:17;0.80;;;0.80;;
2388;SDS011;1205;47.984;7.668;2023-03-20T15:11:46;0.70;;;0.70;;
2388;SDS011;1205;47.984;7.668;2023-03-20T15:14:17;0.80;;;0.80;;
2388;SDS011;1205;47.984;7.668;2023-03-20T15:16:55;1.37;;;0.87;;
2388;SDS011;1205;47.984;7.668;2023-03-20T15:19:22;2.13;;;2.13;;
2388;SDS011;1205;47.984;7.668;2023-03-20T15:21:48;1.17;;;1.07;;
2388;SDS011;1205;47.984;7.668;2023-03-20T15:24:24;0.90;;;0.90;;
2388;SDS011;1205;47.984;7.668;2023-03-20T15:26:52;0.90;;;0.90;;
2388;SDS011;1205;47.984;7.668;2023-03-20T15:29:19;2.73;;;1.10;;
2388;SDS011;1205;47.984;7.668;2023-03-20T15:31:46;0.97;;;0.67;;
2388;SDS011;1205;47.984;7.668;2023-03-20T15:34:19;1.50;;;1.00;;
2388;SDS011;1205;47.984;7.668;2023-03-20T15:36:47;1.00;;;0.87;;
2388;SDS011;1205;47.984;7.668;2023-03-20T15:39:15;1.00;;;0.90;;
2388;SDS011;1205;47.984;7.668;2023-03-20T15:41:44;0.77;;;0.77;;
2388;SDS011;1205;47.984;7.668;2023-03-20T15:46:40;7.63;;;2.23;;
2388;SDS011;1205;47.984;7.668;2023-03-20T15:49:17;3.57;;;1.20;;
2388;SDS011;1205;47.984;7.668;2023-03-20T15:51:44;1.30;;;0.97;;
2388;SDS011;1205;47.984;7.668;2023-03-20T15:54:12;2.40;;;1.00;;
2388;SDS011;1205;47.984;7.668;2023-03-20T15:56:38;1.00;;;0.90;;
2388;SDS011;1205;47.984;7.668;2023-03-20T15:59:10;1.63;;;1.13;;
2388;SDS011;1205;47.984;7.668;2023-03-20T16:01:38;1.10;;;1.10;;
2388;SDS011;1205;47.984;7.668;2023-03-20T16:04:04;1.07;;;0.93;;
2388;SDS011;1205;47.984;7.668;2023-03-20T16:06:30;1.53;;;1.10;;
2388;SDS011;1205;47.984;7.668;2023-03-20T16:08:56;0.80;;;0.80;;
2388;SDS011;1205;47.984;7.668;2023-03-20T16:11:24;1.00;;;1.00;;
2388;SDS011;1205;47.984;7.668;2023-03-20T16:13:58;0.93;;;0.93;;
2388;SDS011;1205;47.984;7.668;2023-03-20T16:16:24;1.23;;;1.13;;
2388;SDS011;1205;47.984;7.668;2023-03-20T16:18:50;22.53;;;15.17;;
2388;SDS011;1205;47.984;7.668;2023-03-20T16:21:26;3.23;;;2.97;;
2388;SDS011;1205;47.984;7.668;2023-03-20T16:23:55;1.40;;;1.30;;
2388;SDS011;1205;47.984;7.668;2023-03-20T16:26:22;1.47;;;0.83;;
2388;SDS011;1205;47.984;7.668;2023-03-20T16:28:53;5.43;;;1.17;;
2388;SDS011;1205;47.984;7.668;2023-03-20T16:33:51;1.60;;;1.50;;
2388;SDS011;1205;47.984;7.668;2023-03-20T16:36:19;1.53;;;1.10;;
2388;SDS011;1205;47.984;7.668;2023-03-20T16:41:40;1.33;;;0.80;;
2388;SDS011;1205;47.984;7.668;2023-03-20T16:44:06;0.90;;;0.90;;
2388;SDS011;1205;47.984;7.668;2023-03-20T16:46:52;1.13;;;0.70;;
2388;SDS011;1205;47.984;7.668;2023-03-20T16:51:59;1.20;;;0.90;;
2388;SDS011;1205;47.984;7.668;2023-03-20T16:54:28;1.17;;;1.10;;
2388;SDS011;1205;47.984;7.668;2023-03-20T16:56:57;0.77;;;0.70;;
2388;SDS011;1205;47.984;7.668;2023-03-20T16:59:24;1.53;;;0.90;;
2388;SDS011;1205;47.984;7.668;2023-03-20T17:01:50;2.03;;;1.37;;
2388;SDS011;1205;47.984;7.668;2023-03-20T17:07:05;2.10;;;2.00;;
2388;SDS011;1205;47.984;7.668;2023-03-20T17:09:37;2.40;;;2.30;;
2388;SDS011;1205;47.984;7.668;2023-03-20T17:12:35;3.43;;;2.43;;
2388;SDS011;1205;47.984;7.668;2023-03-20T17:15:04;4.10;;;2.40;;
2388;SDS011;1205;47.984;7.668;2023-03-20T17:17:30;2.40;;;2.30;;
2388;SDS011;1205;47.984;7.668;2023-03-20T17:19:56;2.03;;;1.93;;
2388;SDS011;1205;47.984;7.668;2023-03-20T17:22:24;1.73;;;1.63;;
2388;SDS011;1205;47.984;7.668;2023-03-20T17:24:52;1.70;;;1.60;;
2388;SDS011;1205;47.984;7.668;2023-03-20T17:27:18;1.10;;;1.10;;
2388;SDS011;1205;47.984;7.668;2023-03-20T17:29:45;1.03;;;1.00;;
2388;SDS011;1205;47.984;7.668;2023-03-20T17:32:14;1.10;;;1.10;;
2388;SDS011;1205;47.984;7.668;2023-03-20T17:34:41;1.30;;;1.30;;
2388;SDS011;1205;47.984;7.668;2023-03-20T17:37:11;4.40;;;1.10;;
2388;SDS011;1205;47.984;7.668;2023-03-20T17:39:40;1.07;;;0.97;;
2388;SDS011;1205;47.984;7.668;2023-03-20T17:42:24;0.93;;;0.93;;
2388;SDS011;1205;47.984;7.668;2023-03-20T17:44:55;1.70;;;0.90;;
2388;SDS011;1205;47.984;7.668;2023-03-20T17:47:27;0.70;;;0.70;;
2388;SDS011;1205;47.984;7.668;2023-03-20T17:49:53;0.90;;;0.90;;
2388;SDS011;1205;47.984;7.668;2023-03-20T17:52:21;1.10;;;1.10;;
2388;SDS011;1205;47.984;7.668;2023-03-20T17:54:49;2.00;;;1.90;;
2388;SDS011;1205;47.984;7.668;2023-03-20T17:57:33;2.53;;;2.33;;
2388;SDS011;1205;47.984;7.668;2023-03-20T18:00:02;2.60;;;2.40;;
2388;SDS011;1205;47.984;7.668;2023-03-20T18:02:32;4.10;;;2.57;;